createdAt,value
2022-12-11T00:00:08.093Z,99153.09
2022-12-11T00:02:35.147Z,99152.91
2022-12-11T00:05:01.831Z,99148.97
2022-12-11T00:07:28.473Z,99150.09
2022-12-11T00:09:54.945Z,99147.88
2022-12-11T00:12:21.763Z,99151.69
2022-12-11T00:14:48.374Z,99151.13
2022-12-11T00:17:14.948Z,99168.22
2022-12-11T00:19:41.621Z,99167.00
2022-12-11T00:22:08.258Z,99178.06
2022-12-11T00:24:34.769Z,99193.00
2022-12-11T00:27:01.426Z,99192.56
2022-12-11T00:29:28.114Z,99192.00
2022-12-11T00:31:54.668Z,99190.00
2022-12-11T00:34:21.401Z,99192.38
2022-12-11T00:36:48.112Z,99191.81
2022-12-11T00:39:14.636Z,99196.53
2022-12-11T00:41:41.282Z,99191.63
2022-12-11T00:44:07.865Z,99196.72
2022-12-11T00:46:34.377Z,99184.75
2022-12-11T00:49:00.984Z,99188.72
2022-12-11T00:51:27.617Z,99176.59
2022-12-11T00:53:54.112Z,99180.59
2022-12-11T00:56:22.406Z,99178.19
2022-12-11T00:58:49.809Z,99173.72
2022-12-11T01:01:20.003Z,99169.88
2022-12-11T01:03:47.724Z,99167.16
2022-12-11T01:06:19.377Z,99171.22
2022-12-11T01:08:47.101Z,99161.03
2022-12-11T01:11:16.020Z,99170.75
2022-12-11T01:13:43.224Z,99169.50
2022-12-11T01:16:14.928Z,99176.78
2022-12-11T01:18:42.366Z,99189.47
2022-12-11T01:21:11.935Z,99194.31
2022-12-11T01:23:39.282Z,99190.25
2022-12-11T01:26:10.686Z,99194.91
2022-12-11T01:28:37.718Z,99190.50
2022-12-11T01:31:15.422Z,99188.28
2022-12-11T01:33:42.310Z,99193.75
2022-12-11T01:36:10.662Z,99198.47
2022-12-11T01:38:37.321Z,99210.56
2022-12-11T01:41:04.289Z,99201.59
2022-12-11T01:43:31.163Z,99216.25
2022-12-11T01:45:57.921Z,99217.41
2022-12-11T01:48:28.699Z,99209.81
2022-12-11T01:51:05.964Z,99212.28
2022-12-11T01:53:40.392Z,99217.66
2022-12-11T01:56:08.486Z,99218.66
2022-12-11T01:58:41.031Z,99218.16
2022-12-11T02:03:42.883Z,99207.75
2022-12-11T02:06:30.438Z,99223.44
2022-12-11T02:08:57.215Z,99219.88
2022-12-11T02:11:35.482Z,99218.13
2022-12-11T02:14:31.384Z,99223.59
2022-12-11T02:17:14.092Z,99226.31
2022-12-11T02:19:57.692Z,99215.59
2022-12-11T02:23:01.461Z,99232.03
2022-12-11T02:25:50.621Z,99227.09
2022-12-11T02:28:41.913Z,99223.13
2022-12-11T02:31:50.450Z,99230.88
2022-12-11T02:34:28.745Z,99240.56
2022-12-11T02:37:02.185Z,99240.72
2022-12-11T02:39:31.308Z,99238.28
2022-12-11T02:41:59.064Z,99232.19
2022-12-11T02:44:30.459Z,99234.97
2022-12-11T02:46:58.506Z,99233.56
2022-12-11T02:49:27.820Z,99233.25
2022-12-11T02:51:56.559Z,99220.34
2022-12-11T02:54:29.049Z,99222.63
2022-12-11T02:57:41.974Z,99216.50
2022-12-11T03:00:09.112Z,99220.47
2022-12-11T03:02:36.699Z,99219.88
2022-12-11T03:05:04.985Z,99219.84
2022-12-11T03:07:38.288Z,99215.44
2022-12-11T03:10:07.961Z,99211.63
2022-12-11T03:12:37.014Z,99205.03
2022-12-11T03:15:06.741Z,99219.16
2022-12-11T03:18:00.571Z,99211.03
2022-12-11T03:20:43.240Z,99212.03
2022-12-11T03:23:22.791Z,99209.44
2022-12-11T03:25:55.417Z,99204.69
2022-12-11T03:28:42.065Z,99200.38
2022-12-11T03:31:13.599Z,99193.56
2022-12-11T03:33:44.591Z,99193.31
2022-12-11T03:36:14.619Z,99191.19
2022-12-11T03:38:49.216Z,99197.06
2022-12-11T03:41:18.571Z,99202.25
2022-12-11T03:43:45.876Z,99200.19
2022-12-11T03:46:15.124Z,99194.25
2022-12-11T03:48:44.771Z,99194.53
2022-12-11T03:51:11.341Z,99192.50
2022-12-11T03:53:39.388Z,99181.88
2022-12-11T03:56:08.603Z,99181.34
2022-12-11T03:58:35.496Z,99182.84
2022-12-11T04:01:02.103Z,99186.78
2022-12-11T04:03:28.747Z,99181.09
2022-12-11T04:05:55.832Z,99174.44
2022-12-11T04:08:23.652Z,99181.16
2022-12-11T04:11:11.139Z,99177.88
2022-12-11T04:13:38.777Z,99172.66
2022-12-11T04:16:05.679Z,99185.16
2022-12-11T04:18:50.934Z,99181.69
2022-12-11T04:21:39.497Z,99171.44
2022-12-11T04:24:16.043Z,99170.22
2022-12-11T04:26:44.452Z,99171.78
2022-12-11T04:29:11.150Z,99165.69
2022-12-11T04:31:37.844Z,99166.16
2022-12-11T04:34:04.624Z,99166.66
2022-12-11T04:36:31.115Z,99163.41
2022-12-11T04:38:57.808Z,99165.75
2022-12-11T04:41:24.341Z,99170.53
2022-12-11T04:43:50.924Z,99171.75
2022-12-11T04:46:20.604Z,99163.53
2022-12-11T04:48:52.410Z,99171.47
2022-12-11T04:51:22.277Z,99169.03
2022-12-11T04:53:48.972Z,99165.03
2022-12-11T04:56:16.503Z,99169.09
2022-12-11T04:58:44.324Z,99165.06
2022-12-11T05:01:12.666Z,99167.13
2022-12-11T05:03:39.352Z,99169.25
2022-12-11T05:06:06.605Z,99159.97
2022-12-11T05:08:34.955Z,99159.25
2022-12-11T05:11:04.025Z,99158.06
2022-12-11T05:13:31.869Z,99163.78
2022-12-11T05:15:58.975Z,99159.59
2022-12-11T05:18:25.841Z,99156.41
2022-12-11T05:21:04.420Z,99150.78
2022-12-11T05:23:31.570Z,99154.00
2022-12-11T05:26:01.857Z,99151.06
2022-12-11T05:28:30.367Z,99144.25
2022-12-11T05:31:05.297Z,99145.84
2022-12-11T05:33:32.245Z,99140.25
2022-12-11T05:35:58.888Z,99140.25
2022-12-11T05:38:25.930Z,99139.69
2022-12-11T05:41:00.015Z,99140.69
2022-12-11T05:43:28.233Z,99147.91
2022-12-11T05:45:55.108Z,99136.88
2022-12-11T05:48:22.154Z,99138.84
2022-12-11T05:51:02.147Z,99136.91
2022-12-11T05:53:29.252Z,99137.00
2022-12-11T05:56:02.317Z,99127.09
2022-12-11T05:58:28.873Z,99132.16
2022-12-11T06:00:55.615Z,99133.91
2022-12-11T06:03:22.149Z,99127.47
2022-12-11T06:05:49.356Z,99136.38
2022-12-11T06:08:16.081Z,99136.38
2022-12-11T06:10:49.936Z,99133.88
2022-12-11T06:13:17.310Z,99129.69
2022-12-11T06:15:43.855Z,99127.22
2022-12-11T06:18:10.728Z,99124.44
2022-12-11T06:20:37.459Z,99132.53
2022-12-11T06:23:04.096Z,99132.66
2022-12-11T06:25:30.818Z,99133.00
2022-12-11T06:27:57.837Z,99125.84
2022-12-11T06:30:38.684Z,99115.88
2022-12-11T06:33:06.571Z,99131.31
2022-12-11T06:35:36.285Z,99126.50
2022-12-11T06:38:08.195Z,99131.25
2022-12-11T06:40:34.680Z,99130.75
2022-12-11T06:43:01.164Z,99128.50
2022-12-11T06:45:27.859Z,99138.94
2022-12-11T06:47:54.407Z,99130.50
2022-12-11T06:50:20.888Z,99123.47
2022-12-11T06:52:47.500Z,99123.00
2022-12-11T06:55:14.211Z,99129.44
2022-12-11T06:57:40.724Z,99135.47
2022-12-11T07:00:07.805Z,99131.50
2022-12-11T07:02:34.423Z,99121.59
2022-12-11T07:05:00.998Z,99116.41
2022-12-11T07:07:27.647Z,99109.66
2022-12-11T07:09:54.208Z,99121.75
2022-12-11T07:12:21.160Z,99128.03
2022-12-11T07:14:47.932Z,99124.09
2022-12-11T07:17:14.442Z,99131.75
2022-12-11T07:19:41.220Z,99139.75
2022-12-11T07:22:08.150Z,99135.53
2022-12-11T07:24:34.679Z,99142.22
2022-12-11T07:27:01.189Z,99132.56
2022-12-11T07:29:27.809Z,99128.19
2022-12-11T07:31:54.479Z,99121.00
2022-12-11T07:34:21.057Z,99124.97
2022-12-11T07:36:47.855Z,99125.75
2022-12-11T07:39:14.365Z,99125.31
2022-12-11T07:41:40.920Z,99124.25
2022-12-11T07:44:07.533Z,99134.41
2022-12-11T07:46:34.512Z,99130.19
2022-12-11T07:49:01.662Z,99130.84
2022-12-11T07:51:31.458Z,99143.25
2022-12-11T07:54:00.508Z,99134.91
2022-12-11T07:56:28.545Z,99141.31
2022-12-11T07:58:55.434Z,99147.69
2022-12-11T08:01:26.130Z,99144.34
2022-12-11T08:03:53.901Z,99148.19
2022-12-11T08:06:24.833Z,99142.47
2022-12-11T08:08:51.329Z,99140.34
2022-12-11T08:11:17.864Z,99135.19
2022-12-11T08:13:44.677Z,99134.16
2022-12-11T08:16:13.552Z,99135.88
2022-12-11T08:18:41.748Z,99135.16
2022-12-11T08:21:10.353Z,99134.47
2022-12-11T08:23:37.201Z,99134.22
2022-12-11T08:26:06.012Z,99124.66
2022-12-11T08:28:33.246Z,99137.00
2022-12-11T08:31:00.223Z,99142.72
2022-12-11T08:33:27.179Z,99132.03
2022-12-11T08:35:53.793Z,99129.91
2022-12-11T08:38:25.154Z,99123.53
2022-12-11T08:40:52.290Z,99126.06
2022-12-11T08:43:18.913Z,99137.47
2022-12-11T08:45:46.949Z,99141.69
2022-12-11T08:48:13.639Z,99145.88
2022-12-11T08:50:40.223Z,99144.16
2022-12-11T08:53:06.774Z,99137.69
2022-12-11T08:55:33.940Z,99129.28
2022-12-11T08:58:00.562Z,99132.44
2022-12-11T09:00:27.049Z,99121.84
2022-12-11T09:02:53.705Z,99127.72
2022-12-11T09:05:20.316Z,99130.44
2022-12-11T09:07:46.862Z,99125.88
2022-12-11T09:10:13.524Z,99126.63
2022-12-11T09:12:40.239Z,99124.38
2022-12-11T09:15:07.166Z,99119.38
2022-12-11T09:17:34.648Z,99123.47
2022-12-11T09:20:01.565Z,99123.00
2022-12-11T09:22:28.586Z,99127.47
2022-12-11T09:24:55.157Z,99123.28
2022-12-11T09:27:22.392Z,99128.53
2022-12-11T09:29:49.375Z,99115.16
2022-12-11T09:32:15.976Z,99112.63
2022-12-11T09:34:42.632Z,99118.63
2022-12-11T09:37:09.311Z,99119.63
2022-12-11T09:39:35.978Z,99112.34
2022-12-11T09:42:18.744Z,99115.81
2022-12-11T09:44:58.444Z,99111.66
2022-12-11T09:47:40.550Z,99106.28
2022-12-11T09:50:10.267Z,99109.19
2022-12-11T09:53:02.930Z,99106.38
2022-12-11T09:56:03.912Z,99102.63
2022-12-11T09:58:59.907Z,99089.28
2022-12-11T10:01:30.308Z,99094.41
2022-12-11T10:04:26.409Z,99093.72
2022-12-11T10:06:59.710Z,99082.84
2022-12-11T10:09:33.520Z,99078.41
2022-12-11T10:12:11.875Z,99077.91
2022-12-11T10:15:22.597Z,99084.41
2022-12-11T10:17:50.523Z,99075.50
2022-12-11T10:20:27.084Z,99070.53
2022-12-11T10:22:54.918Z,99063.16
2022-12-11T10:25:29.345Z,99073.25
2022-12-11T10:27:56.262Z,99063.78
2022-12-11T10:30:29.324Z,99063.97
2022-12-11T10:33:22.663Z,99061.13
2022-12-11T10:35:53.198Z,99057.16
2022-12-11T10:38:31.851Z,99050.78
2022-12-11T10:41:01.739Z,99045.63
2022-12-11T10:43:55.716Z,99034.75
2022-12-11T10:46:25.493Z,99031.16
2022-12-11T10:49:22.619Z,99026.47
2022-12-11T10:51:49.424Z,99026.56
2022-12-11T10:54:29.286Z,99029.06
2022-12-11T10:56:56.598Z,99022.63
2022-12-11T10:59:30.172Z,99028.97
2022-12-11T11:01:57.954Z,99009.56
2022-12-11T11:04:31.526Z,99018.81
2022-12-11T11:07:13.351Z,99015.50
2022-12-11T11:09:40.484Z,99004.69
2022-12-11T11:12:27.885Z,99022.69
2022-12-11T11:15:07.745Z,99032.47
2022-12-11T11:17:52.935Z,99035.59
2022-12-11T11:20:26.782Z,99035.72
2022-12-11T11:22:58.837Z,99029.69
2022-12-11T11:25:28.789Z,99026.81
2022-12-11T11:27:58.575Z,99025.75
2022-12-11T11:30:35.785Z,99018.44
2022-12-11T11:33:11.058Z,99009.19
2022-12-11T11:35:39.108Z,99018.53
2022-12-11T11:38:19.980Z,99010.03
2022-12-11T11:41:20.173Z,99002.19
2022-12-11T11:43:52.482Z,98996.19
2022-12-11T11:46:30.782Z,98981.84
2022-12-11T11:49:10.656Z,98974.13
2022-12-11T11:51:44.700Z,98975.75
2022-12-11T11:54:37.378Z,98971.56
2022-12-11T11:57:15.562Z,98966.66
2022-12-11T11:59:48.103Z,98959.03
2022-12-11T12:02:17.626Z,98967.47
2022-12-11T12:04:45.889Z,98955.81
2022-12-11T12:07:45.626Z,98960.84
2022-12-11T12:10:53.752Z,98960.13
2022-12-11T12:13:49.194Z,98950.03
2022-12-11T12:16:52.703Z,98949.41
2022-12-11T12:19:36.030Z,98945.28
2022-12-11T12:22:30.543Z,98943.78
2022-12-11T12:25:26.560Z,98940.41
2022-12-11T12:28:30.827Z,98943.41
2022-12-11T12:31:03.774Z,98929.16
2022-12-11T12:33:49.397Z,98929.19
2022-12-11T12:36:45.375Z,98931.00
2022-12-11T12:39:29.624Z,98922.94
2022-12-11T12:42:08.099Z,98917.44
2022-12-11T12:45:13.616Z,98912.59
2022-12-11T12:47:43.016Z,98919.41
2022-12-11T12:50:20.215Z,98927.03
2022-12-11T12:52:48.955Z,98926.84
2022-12-11T12:55:23.036Z,98914.19
2022-12-11T12:57:52.511Z,98912.03
2022-12-11T13:00:34.113Z,98930.84
2022-12-11T13:03:30.383Z,98924.09
2022-12-11T13:06:15.267Z,98923.47
2022-12-11T13:08:50.859Z,98932.00
2022-12-11T13:11:20.775Z,98936.09
2022-12-11T13:14:07.844Z,98933.47
2022-12-11T13:16:37.889Z,98932.50
2022-12-11T13:19:17.602Z,98929.59
2022-12-11T13:21:56.218Z,98940.63
2022-12-11T13:24:23.567Z,98939.06
2022-12-11T13:26:50.755Z,98936.13
2022-12-11T13:29:40.361Z,98935.88
2022-12-11T13:32:09.834Z,98928.84
2022-12-11T13:34:39.355Z,98927.25
2022-12-11T13:37:07.497Z,98924.41
2022-12-11T13:39:39.748Z,98927.25
2022-12-11T13:42:19.740Z,98924.84
2022-12-11T13:44:48.356Z,98923.00
2022-12-11T13:47:18.774Z,98915.97
2022-12-11T13:49:49.554Z,98912.03
2022-12-11T13:52:18.859Z,98902.47
2022-12-11T13:54:54.437Z,98907.06
2022-12-11T13:57:25.853Z,98919.88
2022-12-11T13:59:57.265Z,98914.22
2022-12-11T14:02:32.519Z,98917.75
2022-12-11T14:05:05.203Z,98917.72
2022-12-11T14:07:35.271Z,98919.41
2022-12-11T14:10:11.147Z,98925.63
2022-12-11T14:12:37.899Z,98915.31
2022-12-11T14:15:05.401Z,98928.34
2022-12-11T14:17:34.271Z,98930.94
2022-12-11T14:20:07.320Z,98925.94
2022-12-11T14:22:34.126Z,98931.16
2022-12-11T14:25:16.751Z,98935.28
2022-12-11T14:27:51.547Z,98934.75
2022-12-11T14:30:28.118Z,98937.09
2022-12-11T14:32:59.079Z,98935.56
2022-12-11T14:35:39.268Z,98937.72
2022-12-11T14:38:15.683Z,98940.97
2022-12-11T14:40:45.739Z,98949.03
2022-12-11T14:43:19.822Z,98944.47
2022-12-11T14:45:50.274Z,98950.44
2022-12-11T14:48:22.289Z,98937.53
2022-12-11T14:50:53.569Z,98943.06
2022-12-11T14:53:29.814Z,98951.22
2022-12-11T14:56:01.437Z,98941.53
2022-12-11T14:58:28.060Z,98945.69
2022-12-11T15:01:07.619Z,98943.91
2022-12-11T15:03:39.161Z,98945.00
2022-12-11T15:06:28.754Z,98941.69
2022-12-11T15:08:55.493Z,98943.16
2022-12-11T15:11:24.054Z,98945.06
2022-12-11T15:14:03.195Z,98946.84
2022-12-11T15:16:34.592Z,98944.94
2022-12-11T15:19:02.038Z,98948.91
2022-12-11T15:21:31.053Z,98943.94
2022-12-11T15:24:00.013Z,98947.31
2022-12-11T15:26:34.484Z,98948.31
2022-12-11T15:29:03.814Z,98956.19
2022-12-11T15:31:32.722Z,98956.25
2022-12-11T15:33:59.654Z,98956.03
2022-12-11T15:36:35.509Z,98960.38
2022-12-11T15:39:03.520Z,98957.19
2022-12-11T15:41:33.402Z,98965.97
2022-12-11T15:44:02.105Z,98951.69
2022-12-11T15:46:29.427Z,98950.44
2022-12-11T15:48:57.453Z,98949.44
2022-12-11T15:51:25.324Z,98948.22
2022-12-11T15:53:52.071Z,98948.25
2022-12-11T15:56:18.734Z,98944.13
2022-12-11T15:58:47.531Z,98942.56
2022-12-11T16:01:14.414Z,98944.56
2022-12-11T16:03:40.929Z,98946.13
2022-12-11T16:06:12.119Z,98943.66
2022-12-11T16:08:38.747Z,98939.50
2022-12-11T16:11:05.415Z,98950.84
2022-12-11T16:13:31.960Z,98948.41
2022-12-11T16:15:58.758Z,98951.66
2022-12-11T16:18:26.514Z,98945.47
2022-12-11T16:20:53.222Z,98941.25
2022-12-11T16:23:20.525Z,98938.81
2022-12-11T16:25:47.140Z,98945.53
2022-12-11T16:28:16.091Z,98949.72
2022-12-11T16:30:43.650Z,98951.22
2022-12-11T16:33:13.255Z,98942.53
2022-12-11T16:35:41.398Z,98948.28
2022-12-11T16:38:08.347Z,98941.31
2022-12-11T16:40:34.896Z,98947.00
2022-12-11T16:43:02.744Z,98951.78
2022-12-11T16:45:29.432Z,98943.78
2022-12-11T16:47:55.992Z,98940.78
2022-12-11T16:50:23.632Z,98943.75
2022-12-11T16:52:50.908Z,98937.34
2022-12-11T16:55:21.143Z,98937.84
2022-12-11T16:57:47.863Z,98935.09
2022-12-11T17:00:15.551Z,98940.06
2022-12-11T17:02:42.254Z,98939.78
2022-12-11T17:05:09.252Z,98940.69
2022-12-11T17:07:36.007Z,98936.00
2022-12-11T17:10:03.289Z,98936.84
2022-12-11T17:12:30.728Z,98941.78
2022-12-11T17:14:57.448Z,98947.00
2022-12-11T17:17:24.232Z,98942.31
2022-12-11T17:19:51.977Z,98930.38
2022-12-11T17:22:19.017Z,98931.81
2022-12-11T17:24:45.602Z,98937.50
2022-12-11T17:27:12.412Z,98934.00
2022-12-11T17:29:39.239Z,98940.44
2022-12-11T17:32:06.074Z,98946.41
2022-12-11T17:34:37.905Z,98946.69
2022-12-11T17:37:06.253Z,98941.75
2022-12-11T17:39:33.105Z,98942.53
2022-12-11T17:41:59.889Z,98947.47
2022-12-11T17:44:26.892Z,98948.50
2022-12-11T17:46:53.509Z,98949.94
2022-12-11T17:49:20.253Z,98950.72
2022-12-11T17:51:48.050Z,98942.50
2022-12-11T17:54:14.575Z,98950.22
2022-12-11T17:56:41.203Z,98953.94
2022-12-11T17:59:07.898Z,98959.06
2022-12-11T18:01:34.782Z,98950.66
2022-12-11T18:04:01.939Z,98952.09
2022-12-11T18:06:29.652Z,98953.59
2022-12-11T18:08:57.009Z,98945.59
2022-12-11T18:11:23.967Z,98940.78
2022-12-11T18:13:53.038Z,98937.00
2022-12-11T18:16:24.604Z,98927.31
2022-12-11T18:18:51.278Z,98928.44
2022-12-11T18:21:30.917Z,98931.88
2022-12-11T18:23:58.316Z,98926.03
2022-12-11T18:26:25.247Z,98939.44
2022-12-11T18:28:53.355Z,98944.94
2022-12-11T18:31:21.991Z,98943.28
2022-12-11T18:33:48.681Z,98932.88
2022-12-11T18:36:18.004Z,98933.13
2022-12-11T18:38:44.775Z,98934.38
2022-12-11T18:41:13.292Z,98934.41
2022-12-11T18:43:40.729Z,98946.75
2022-12-11T18:46:12.762Z,98944.53
2022-12-11T18:48:39.507Z,98955.00
2022-12-11T18:51:08.575Z,98955.91
2022-12-11T18:53:35.837Z,98951.22
2022-12-11T18:56:07.239Z,98955.94
2022-12-11T18:58:33.924Z,98957.84
2022-12-11T19:01:06.775Z,98958.63
2022-12-11T19:03:33.321Z,98959.81
2022-12-11T19:06:17.103Z,98974.41
2022-12-11T19:08:43.786Z,98966.75
2022-12-11T19:11:14.801Z,98972.94
2022-12-11T19:13:41.558Z,98971.47
2022-12-11T19:16:08.163Z,98970.69
2022-12-11T19:18:34.781Z,98971.22
2022-12-11T19:21:08.502Z,98963.28
2022-12-11T19:23:35.966Z,98952.63
2022-12-11T19:26:02.898Z,98957.63
2022-12-11T19:28:29.842Z,98958.88
2022-12-11T19:30:56.495Z,98970.78
2022-12-11T19:33:23.128Z,98971.56
2022-12-11T19:35:49.613Z,98968.28
2022-12-11T19:38:16.192Z,98967.72
2022-12-11T19:40:44.322Z,98985.19
2022-12-11T19:43:11.406Z,98977.13
2022-12-11T19:45:38.325Z,98984.91
2022-12-11T19:48:05.862Z,98984.63
2022-12-11T19:50:35.529Z,98982.59
2022-12-11T19:53:02.068Z,98976.47
2022-12-11T19:55:29.117Z,98973.22
2022-12-11T19:57:55.812Z,98971.25
2022-12-11T20:00:22.392Z,98977.19
2022-12-11T20:02:49.221Z,98965.56
2022-12-11T20:05:16.065Z,98970.97
2022-12-11T20:07:44.562Z,98972.19
2022-12-11T20:10:11.455Z,98971.44
2022-12-11T20:12:37.966Z,98975.41
2022-12-11T20:15:06.163Z,98979.63
2022-12-11T20:17:33.585Z,98973.47
2022-12-11T20:20:00.250Z,98974.38
2022-12-11T20:22:26.841Z,98970.13
2022-12-11T20:24:53.589Z,98964.97
2022-12-11T20:27:20.079Z,98957.69
2022-12-11T20:29:46.741Z,98970.13
2022-12-11T20:32:13.561Z,98968.56
2022-12-11T20:34:40.296Z,98957.97
2022-12-11T20:37:07.791Z,98959.59
2022-12-11T20:39:34.501Z,98952.88
2022-12-11T20:42:04.716Z,98958.75
2022-12-11T20:44:32.039Z,98955.19
2022-12-11T20:46:58.757Z,98954.00
2022-12-11T20:49:25.444Z,98956.03
2022-12-11T20:51:52.110Z,98956.56
2022-12-11T20:54:18.731Z,98956.28
2022-12-11T20:56:45.241Z,98957.25
2022-12-11T20:59:11.983Z,98952.00
2022-12-11T21:01:40.334Z,98962.25
2022-12-11T21:04:07.072Z,98957.75
2022-12-11T21:06:35.753Z,98956.03
2022-12-11T21:09:09.443Z,98951.88
2022-12-11T21:11:36.083Z,98955.56
2022-12-11T21:14:02.732Z,98948.41
2022-12-11T21:16:29.694Z,98954.56
2022-12-11T21:18:57.387Z,98948.84
2022-12-11T21:21:24.750Z,98949.22
2022-12-11T21:23:51.769Z,98952.38
2022-12-11T21:26:18.606Z,98957.31
2022-12-11T21:28:45.112Z,98964.22
2022-12-11T21:31:14.336Z,98960.91
2022-12-11T21:33:40.972Z,98967.41
2022-12-11T21:36:11.007Z,98964.00
2022-12-11T21:38:38.193Z,98958.19
2022-12-11T21:41:09.970Z,98964.34
2022-12-11T21:43:40.059Z,98963.66
2022-12-11T21:46:16.972Z,98966.41
2022-12-11T21:48:43.981Z,98955.47
2022-12-11T21:51:16.565Z,98963.16
2022-12-11T21:53:43.948Z,98959.13
2022-12-11T21:56:13.818Z,98956.72
2022-12-11T21:58:42.240Z,98951.13
2022-12-11T22:01:16.144Z,98958.63
2022-12-11T22:03:42.744Z,98957.91
2022-12-11T22:06:09.505Z,98961.31
2022-12-11T22:08:36.460Z,98956.38
2022-12-11T22:11:03.096Z,98963.94
2022-12-11T22:13:29.675Z,98956.13
2022-12-11T22:15:56.310Z,98949.75
2022-12-11T22:18:27.004Z,98957.69
2022-12-11T22:20:54.678Z,98967.59
2022-12-11T22:23:21.847Z,98968.34
2022-12-11T22:25:48.816Z,98967.41
2022-12-11T22:28:15.412Z,98969.25
2022-12-11T22:30:43.229Z,98968.53
2022-12-11T22:33:10.133Z,98966.66
2022-12-11T22:35:36.772Z,98967.38
2022-12-11T22:38:03.624Z,98972.63
2022-12-11T22:40:30.800Z,98970.06
2022-12-11T22:42:57.306Z,98967.09
2022-12-11T22:45:23.972Z,98969.84
2022-12-11T22:47:50.578Z,98972.56
2022-12-11T22:50:17.588Z,98957.75
2022-12-11T22:52:46.965Z,98971.53
2022-12-11T22:55:14.874Z,98967.81
2022-12-11T22:57:41.550Z,98973.81
2022-12-11T23:00:12.516Z,98971.78
2022-12-11T23:02:39.212Z,98972.78
2022-12-11T23:05:06.195Z,98971.09
2022-12-11T23:07:34.182Z,98970.84
2022-12-11T23:10:01.047Z,98978.59
2022-12-11T23:12:27.623Z,98975.06
2022-12-11T23:14:54.465Z,98976.88
2022-12-11T23:17:20.963Z,98973.59
2022-12-11T23:19:47.525Z,98980.09
2022-12-11T23:22:14.199Z,98982.31
2022-12-11T23:24:40.883Z,98979.81
2022-12-11T23:27:07.695Z,98977.00
2022-12-11T23:29:34.586Z,98975.78
2022-12-11T23:32:01.100Z,98973.59
2022-12-11T23:34:28.146Z,98975.41
2022-12-11T23:36:54.792Z,98972.97
2022-12-11T23:39:21.323Z,98977.00
2022-12-11T23:41:47.822Z,98971.34
2022-12-11T23:44:14.457Z,98979.94
2022-12-11T23:46:42.631Z,98980.81
2022-12-11T23:49:09.148Z,98978.63
2022-12-11T23:51:35.957Z,98987.72
2022-12-11T23:54:03.063Z,98987.06
2022-12-11T23:56:30.087Z,98992.13
2022-12-11T23:58:57.881Z,98982.19
